createdAt,value
2018-08-23T00:00:47.214Z,16.95
2018-08-23T00:03:21.567Z,17.00
2018-08-23T00:05:53.962Z,16.96
2018-08-23T00:08:23.637Z,16.92
2018-08-23T00:10:53.586Z,17.03
2018-08-23T00:13:23.356Z,16.95
2018-08-23T00:15:52.603Z,16.92
2018-08-23T00:18:21.876Z,16.86
2018-08-23T00:20:51.102Z,16.81
2018-08-23T00:23:20.342Z,16.82
2018-08-23T00:25:49.572Z,16.70
2018-08-23T00:28:18.799Z,16.62
2018-08-23T00:30:48.054Z,16.56
2018-08-23T00:33:17.308Z,16.52
2018-08-23T00:35:46.542Z,16.53
2018-08-23T00:38:16.179Z,16.62
2018-08-23T00:40:45.781Z,16.68
2018-08-23T00:43:15.379Z,16.53
2018-08-23T00:45:44.762Z,16.42
2018-08-23T00:48:14.011Z,16.41
2018-08-23T00:50:54.394Z,16.43
2018-08-23T00:53:23.767Z,16.43
2018-08-23T00:56:26.615Z,16.47
2018-08-23T00:59:01.617Z,16.50
2018-08-23T01:01:31.483Z,16.52
2018-08-23T01:04:00.722Z,16.30
2018-08-23T01:06:45.539Z,16.22
2018-08-23T01:09:15.039Z,16.15
2018-08-23T01:11:46.781Z,16.07
2018-08-23T01:14:16.031Z,16.03
2018-08-23T01:17:03.225Z,16.09
2018-08-23T01:19:37.544Z,16.12
2018-08-23T01:22:07.920Z,16.10
2018-08-23T01:24:37.135Z,16.05
2018-08-23T01:27:10.933Z,16.04
2018-08-23T01:29:44.299Z,16.08
2018-08-23T01:32:17.865Z,16.25
2018-08-23T01:34:47.120Z,16.27
2018-08-23T01:37:34.732Z,16.06
2018-08-23T01:40:06.085Z,15.94
2018-08-23T01:42:36.424Z,16.00
2018-08-23T01:45:07.286Z,16.08
2018-08-23T01:47:45.135Z,16.01
2018-08-23T01:50:15.054Z,15.92
2018-08-23T01:52:44.987Z,15.94
2018-08-23T01:55:15.042Z,15.92
2018-08-23T01:57:44.616Z,16.14
2018-08-23T02:00:17.795Z,16.38
2018-08-23T02:02:47.138Z,16.20
2018-08-23T02:05:16.394Z,16.20
2018-08-23T02:07:45.643Z,15.95
2018-08-23T02:10:14.995Z,15.85
2018-08-23T02:12:50.906Z,15.73
2018-08-23T02:15:20.547Z,15.66
2018-08-23T02:17:52.918Z,15.67
2018-08-23T02:20:23.007Z,15.66
2018-08-23T02:22:52.627Z,16.12
2018-08-23T02:25:21.876Z,16.08
2018-08-23T02:28:10.123Z,15.89
2018-08-23T02:30:49.379Z,16.06
2018-08-23T02:33:18.660Z,15.79
2018-08-23T02:36:08.739Z,15.64
2018-08-23T02:38:37.994Z,15.58
2018-08-23T02:41:08.347Z,15.59
2018-08-23T02:43:37.609Z,15.67
2018-08-23T02:46:06.965Z,15.61
2018-08-23T02:48:36.293Z,15.62
2018-08-23T02:51:05.880Z,15.62
2018-08-23T02:53:40.813Z,15.64
2018-08-23T02:56:12.410Z,16.10
2018-08-23T02:59:04.441Z,16.08
2018-08-23T03:01:34.929Z,15.87
2018-08-23T03:04:17.947Z,15.67
2018-08-23T03:06:54.396Z,15.57
2018-08-23T03:09:29.043Z,15.46
2018-08-23T03:12:00.650Z,15.37
2018-08-23T03:14:30.530Z,15.31
2018-08-23T03:17:36.702Z,15.42
2018-08-23T03:20:10.561Z,15.48
2018-08-23T03:22:41.683Z,15.49
2018-08-23T03:25:12.383Z,15.57
2018-08-23T03:27:41.748Z,15.46
2018-08-23T03:30:12.508Z,15.45
2018-08-23T03:32:41.922Z,15.55
2018-08-23T03:35:11.861Z,15.56
2018-08-23T03:37:41.275Z,15.66
2018-08-23T03:40:11.647Z,15.67
2018-08-23T03:42:41.986Z,15.72
2018-08-23T03:45:16.784Z,15.53
2018-08-23T03:47:52.464Z,15.46
2018-08-23T03:50:21.785Z,15.46
2018-08-23T03:52:52.373Z,15.45
2018-08-23T03:55:23.584Z,15.57
2018-08-23T03:57:57.101Z,15.40
2018-08-23T04:00:32.375Z,15.34
2018-08-23T04:03:03.140Z,15.33
2018-08-23T04:05:32.597Z,15.26
2018-08-23T04:08:01.996Z,15.41
2018-08-23T04:10:32.408Z,15.27
2018-08-23T04:13:01.772Z,15.17
2018-08-23T04:15:32.079Z,15.11
2018-08-23T04:18:08.427Z,15.02
2018-08-23T04:20:48.355Z,14.96
2018-08-23T04:23:17.857Z,14.95
2018-08-23T04:25:47.289Z,14.93
2018-08-23T04:28:16.731Z,14.95
2018-08-23T04:30:46.162Z,14.96
2018-08-23T04:33:15.642Z,15.18
2018-08-23T04:35:45.052Z,15.07
2018-08-23T04:38:14.481Z,15.06
2018-08-23T04:40:56.915Z,15.08
2018-08-23T04:43:26.356Z,15.06
2018-08-23T04:45:55.904Z,15.27
2018-08-23T04:48:25.397Z,15.08
2018-08-23T04:50:54.789Z,15.30
2018-08-23T04:53:24.296Z,15.12
2018-08-23T04:55:53.690Z,15.09
2018-08-23T04:58:23.049Z,15.20
2018-08-23T05:00:52.471Z,15.23
2018-08-23T05:03:21.926Z,15.32
2018-08-23T05:05:51.278Z,15.42
2018-08-23T05:08:20.649Z,15.49
2018-08-23T05:10:50.041Z,15.57
2018-08-23T05:13:19.574Z,15.67
2018-08-23T05:15:48.919Z,16.01
2018-08-23T05:18:18.317Z,16.02
2018-08-23T05:20:47.735Z,16.15
2018-08-23T05:23:17.196Z,16.56
2018-08-23T05:25:46.610Z,16.48
2018-08-23T05:28:19.405Z,16.56
2018-08-23T05:30:49.542Z,16.88
2018-08-23T05:33:22.998Z,19.20
2018-08-23T05:35:52.899Z,21.88
2018-08-23T05:38:22.261Z,23.80
2018-08-23T05:41:00.524Z,24.50
2018-08-23T05:43:29.898Z,25.42
2018-08-23T05:45:59.323Z,26.79
2018-08-23T05:48:31.900Z,27.21
2018-08-23T05:51:08.688Z,28.41
2018-08-23T05:53:46.406Z,29.00
2018-08-23T05:56:15.802Z,29.72
2018-08-23T05:58:45.249Z,29.73
2018-08-23T06:01:14.679Z,29.10
2018-08-23T06:03:44.063Z,29.61
2018-08-23T06:06:13.486Z,30.26
2018-08-23T06:08:46.838Z,30.35
2018-08-23T06:11:16.899Z,32.29
2018-08-23T06:13:46.359Z,32.07
2018-08-23T06:16:15.709Z,31.97
2018-08-23T06:18:45.056Z,33.53
2018-08-23T06:21:14.397Z,32.68
2018-08-23T06:24:05.582Z,32.53
2018-08-23T06:26:43.243Z,33.07
2018-08-23T06:29:19.592Z,30.25
2018-08-23T06:31:59.363Z,32.12
2018-08-23T06:34:30.417Z,31.83
2018-08-23T06:36:59.754Z,33.03
2018-08-23T06:39:29.167Z,31.15
2018-08-23T06:42:01.712Z,29.83
2018-08-23T06:44:43.706Z,28.71
2018-08-23T06:47:14.757Z,28.58
2018-08-23T06:49:45.306Z,31.32
2018-08-23T06:52:39.045Z,32.21
2018-08-23T06:55:13.632Z,33.79
2018-08-23T06:57:48.745Z,34.34
2018-08-23T07:00:23.276Z,33.16
2018-08-23T07:02:52.677Z,33.65
2018-08-23T07:05:22.165Z,33.92
2018-08-23T07:07:51.795Z,35.62
2018-08-23T07:10:21.175Z,34.39
2018-08-23T07:12:50.637Z,34.11
2018-08-23T07:15:20.170Z,33.88
2018-08-23T07:17:49.541Z,34.98
2018-08-23T07:20:20.093Z,34.99
2018-08-23T07:22:49.491Z,35.64
2018-08-23T07:25:19.647Z,36.74
2018-08-23T07:27:49.055Z,35.75
2018-08-23T07:30:19.738Z,35.87
2018-08-23T07:32:50.948Z,35.07
2018-08-23T07:35:21.359Z,36.38
2018-08-23T07:37:52.308Z,35.88
2018-08-23T07:40:22.832Z,36.50
2018-08-23T07:42:53.396Z,36.38
2018-08-23T07:45:22.886Z,37.03
2018-08-23T07:47:55.424Z,35.27
2018-08-23T07:50:24.836Z,36.10
2018-08-23T07:52:55.070Z,37.82
2018-08-23T07:55:24.404Z,36.25
2018-08-23T07:57:53.797Z,38.49
2018-08-23T08:00:30.377Z,35.98
2018-08-23T08:02:59.763Z,37.01
2018-08-23T08:05:30.401Z,36.03
2018-08-23T08:07:59.989Z,34.72
2018-08-23T08:10:39.230Z,34.53
2018-08-23T08:13:08.618Z,36.96
2018-08-23T08:15:38.011Z,34.87
2018-08-23T08:18:23.548Z,33.71
2018-08-23T08:21:03.511Z,34.67
2018-08-23T08:23:33.452Z,33.86
2018-08-23T08:26:02.812Z,37.11
2018-08-23T08:28:32.215Z,34.55
2018-08-23T08:31:02.556Z,34.50
2018-08-23T08:33:34.955Z,36.09
2018-08-23T08:36:05.168Z,34.63
2018-08-23T08:38:35.191Z,35.13
2018-08-23T08:41:04.610Z,35.14
2018-08-23T08:43:34.020Z,36.23
2018-08-23T08:46:03.402Z,35.88
2018-08-23T08:48:34.066Z,35.07
2018-08-23T08:51:28.931Z,34.95
2018-08-23T08:53:59.578Z,35.73
2018-08-23T08:56:34.667Z,35.33
2018-08-23T08:59:04.036Z,35.58
2018-08-23T09:01:33.749Z,34.54
2018-08-23T09:04:03.283Z,34.21
2018-08-23T09:06:37.928Z,34.94
2018-08-23T09:09:14.262Z,36.64
2018-08-23T09:11:43.671Z,35.43
2018-08-23T09:14:13.068Z,35.20
2018-08-23T09:16:42.543Z,33.48
2018-08-23T09:19:11.925Z,31.68
2018-08-23T09:21:42.492Z,34.16
2018-08-23T09:24:26.676Z,33.01
2018-08-23T09:26:57.734Z,34.73
2018-08-23T09:29:36.939Z,35.45
2018-08-23T09:32:19.807Z,35.26
2018-08-23T09:34:49.718Z,36.89
2018-08-23T09:37:19.047Z,33.98
2018-08-23T09:39:48.352Z,34.50
2018-08-23T09:42:17.645Z,35.74
2018-08-23T09:45:05.664Z,33.47
2018-08-23T09:47:35.006Z,33.31
2018-08-23T09:50:04.775Z,33.51
2018-08-23T09:52:38.644Z,33.98
2018-08-23T09:55:10.385Z,35.36
2018-08-23T09:57:39.776Z,33.36
2018-08-23T10:00:14.070Z,34.16
2018-08-23T10:02:48.580Z,34.80
2018-08-23T10:05:23.301Z,34.87
2018-08-23T10:07:57.755Z,36.28
2018-08-23T10:10:32.452Z,35.96
2018-08-23T10:13:07.068Z,35.95
2018-08-23T10:15:43.990Z,34.87
2018-08-23T10:18:18.657Z,31.84
2018-08-23T10:20:54.792Z,31.95
2018-08-23T10:23:25.068Z,32.93
2018-08-23T10:25:55.530Z,34.82
2018-08-23T10:28:27.128Z,35.65
2018-08-23T10:30:56.986Z,35.44
2018-08-23T10:33:26.332Z,35.16
2018-08-23T10:35:56.463Z,36.64
2018-08-23T10:38:27.884Z,34.92
2018-08-23T10:41:02.311Z,35.66
2018-08-23T10:43:36.984Z,37.47
2018-08-23T10:46:06.732Z,35.20
2018-08-23T10:48:36.067Z,34.60
2018-08-23T10:51:05.508Z,34.08
2018-08-23T10:53:34.924Z,34.49
2018-08-23T10:56:04.559Z,32.57
2018-08-23T10:58:33.881Z,33.54
2018-08-23T11:01:03.201Z,33.01
2018-08-23T11:03:32.480Z,33.16
2018-08-23T11:06:01.780Z,33.83
2018-08-23T11:08:35.838Z,33.75
2018-08-23T11:11:10.627Z,33.17
2018-08-23T11:13:45.079Z,32.82
2018-08-23T11:16:19.429Z,33.45
2018-08-23T11:18:53.853Z,33.52
2018-08-23T11:21:23.156Z,34.83
2018-08-23T11:23:52.501Z,34.06
2018-08-23T11:26:25.039Z,34.80
2018-08-23T11:28:54.336Z,34.74
2018-08-23T11:31:28.528Z,34.21
2018-08-23T11:33:57.876Z,34.73
2018-08-23T11:36:27.197Z,34.71
2018-08-23T11:38:56.539Z,34.59
2018-08-23T11:41:26.002Z,34.43
2018-08-23T11:43:55.486Z,35.65
2018-08-23T11:46:24.804Z,33.32
2018-08-23T11:48:54.176Z,34.50
2018-08-23T11:53:51.930Z,33.87
2018-08-23T11:56:21.231Z,34.14
2018-08-23T11:58:50.682Z,34.59
2018-08-23T12:01:20.057Z,33.93
2018-08-23T12:03:49.368Z,33.87
2018-08-23T12:06:18.724Z,34.45
2018-08-23T12:08:48.125Z,34.68
2018-08-23T12:11:17.514Z,34.72
2018-08-23T12:13:48.737Z,33.88
2018-08-23T12:16:18.340Z,34.17
2018-08-23T12:18:47.991Z,35.04
2018-08-23T12:21:17.386Z,33.89
2018-08-23T12:23:46.749Z,34.63
2018-08-23T12:26:16.252Z,34.66
2018-08-23T12:28:50.686Z,35.59
2018-08-23T12:31:20.099Z,35.35
2018-08-23T12:33:49.598Z,34.70
2018-08-23T12:36:24.297Z,35.27
2018-08-23T12:38:58.997Z,34.73
2018-08-23T12:41:33.483Z,34.53
2018-08-23T12:44:02.940Z,35.15
2018-08-23T12:46:32.482Z,34.82
2018-08-23T12:49:01.836Z,33.44
2018-08-23T12:51:31.265Z,32.90
2018-08-23T12:54:01.351Z,32.85
2018-08-23T12:56:30.844Z,32.70
2018-08-23T12:59:00.211Z,32.24
2018-08-23T13:01:29.663Z,32.83
2018-08-23T13:03:59.173Z,32.68
2018-08-23T13:06:28.480Z,32.58
2018-08-23T13:08:57.821Z,32.00
2018-08-23T13:11:27.256Z,32.37
2018-08-23T13:13:56.615Z,31.59
2018-08-23T13:16:25.938Z,30.69
2018-08-23T13:18:55.335Z,30.22
2018-08-23T13:21:24.722Z,29.91
2018-08-23T13:23:54.059Z,29.54
2018-08-23T13:26:27.597Z,29.41
2018-08-23T13:28:57.055Z,29.30
2018-08-23T13:31:26.536Z,28.69
2018-08-23T13:33:56.335Z,28.39
2018-08-23T13:36:25.864Z,28.63
2018-08-23T13:38:55.247Z,28.33
2018-08-23T13:41:24.782Z,28.37
2018-08-23T13:43:54.196Z,28.23
2018-08-23T13:46:23.486Z,28.02
2018-08-23T13:48:53.021Z,28.05
2018-08-23T13:51:22.429Z,27.47
2018-08-23T13:53:51.938Z,27.45
2018-08-23T13:56:21.335Z,27.91
2018-08-23T13:58:50.731Z,27.51
2018-08-23T14:01:23.469Z,27.49
2018-08-23T14:03:53.004Z,27.33
2018-08-23T14:06:22.420Z,27.39
2018-08-23T14:08:51.918Z,27.05
2018-08-23T14:11:21.627Z,26.87
2018-08-23T14:13:50.993Z,26.62
2018-08-23T14:16:20.490Z,26.55
2018-08-23T14:18:50.118Z,26.05
2018-08-23T14:21:19.554Z,25.67
2018-08-23T14:23:49.005Z,25.50
2018-08-23T14:26:18.420Z,25.42
2018-08-23T14:28:47.854Z,25.17
2018-08-23T14:31:17.383Z,25.03
2018-08-23T14:33:46.772Z,25.41
2018-08-23T14:36:16.708Z,24.59
2018-08-23T14:38:46.365Z,24.39
2018-08-23T14:41:15.857Z,24.34
2018-08-23T14:43:46.189Z,24.14
2018-08-23T14:46:20.901Z,23.89
2018-08-23T14:48:50.720Z,23.96
2018-08-23T14:51:20.306Z,23.64
2018-08-23T14:53:49.814Z,23.66
2018-08-23T14:56:24.373Z,23.50
2018-08-23T14:58:54.089Z,23.78
2018-08-23T15:01:23.441Z,23.60
2018-08-23T15:03:52.869Z,23.63
2018-08-23T15:06:22.268Z,23.71
2018-08-23T15:08:51.605Z,23.75
2018-08-23T15:11:21.075Z,23.45
2018-08-23T15:13:50.418Z,23.26
2018-08-23T15:16:19.860Z,23.55
2018-08-23T15:18:49.201Z,23.60
2018-08-23T15:21:18.676Z,24.07
2018-08-23T15:23:47.994Z,24.05
2018-08-23T15:26:17.528Z,24.12
2018-08-23T15:28:46.783Z,24.03
2018-08-23T15:31:16.109Z,24.11
2018-08-23T15:33:45.548Z,23.76
2018-08-23T15:36:14.900Z,23.78
2018-08-23T15:38:44.303Z,23.81
2018-08-23T15:41:13.698Z,23.80
2018-08-23T15:43:43.096Z,23.76
2018-08-23T15:46:12.572Z,23.64
2018-08-23T15:48:41.965Z,23.47
2018-08-23T15:51:11.329Z,23.52
2018-08-23T15:53:40.814Z,23.28
2018-08-23T15:56:10.276Z,23.16
2018-08-23T15:58:39.674Z,22.92
2018-08-23T16:01:09.310Z,22.80
2018-08-23T16:03:38.709Z,22.99
2018-08-23T16:06:08.064Z,23.06
2018-08-23T16:08:42.801Z,23.02
2018-08-23T16:11:12.335Z,23.19
2018-08-23T16:13:41.757Z,23.09
2018-08-23T16:17:15.836Z,23.22
2018-08-23T16:19:50.438Z,23.07
2018-08-23T16:22:19.846Z,22.97
2018-08-23T16:24:49.241Z,22.94
2018-08-23T16:27:18.673Z,22.99
2018-08-23T16:29:51.124Z,22.87
2018-08-23T16:32:25.706Z,22.80
2018-08-23T16:34:55.138Z,22.80
2018-08-23T16:37:24.529Z,23.04
2018-08-23T16:39:53.851Z,23.14
2018-08-23T16:42:23.170Z,23.28
2018-08-23T16:44:52.551Z,23.11
2018-08-23T16:47:21.975Z,23.20
2018-08-23T16:49:51.382Z,23.22
2018-08-23T16:52:20.779Z,23.38
2018-08-23T16:54:50.191Z,23.44
2018-08-23T16:57:19.533Z,23.28
2018-08-23T16:59:49.001Z,23.35
2018-08-23T17:02:18.424Z,23.10
2018-08-23T17:04:47.844Z,22.98
2018-08-23T17:07:17.743Z,22.66
2018-08-23T17:09:47.147Z,22.49
2018-08-23T17:12:16.650Z,22.36
2018-08-23T17:14:46.018Z,22.44
2018-08-23T17:17:52.879Z,22.30
2018-08-23T17:20:22.295Z,22.09
2018-08-23T17:22:51.641Z,22.12
2018-08-23T17:25:21.124Z,22.05
2018-08-23T17:27:50.644Z,22.25
2018-08-23T17:30:20.044Z,22.30
2018-08-23T17:32:49.396Z,21.93
2018-08-23T17:35:18.808Z,22.17
2018-08-23T17:37:48.159Z,21.94
2018-08-23T17:40:17.576Z,22.23
2018-08-23T17:42:47.093Z,22.14
2018-08-23T17:45:16.589Z,21.94
2018-08-23T17:47:46.069Z,22.09
2018-08-23T17:50:15.486Z,22.01
2018-08-23T17:52:44.870Z,21.78
2018-08-23T17:55:14.148Z,21.72
2018-08-23T17:57:43.508Z,21.62
2018-08-23T18:00:12.898Z,21.36
2018-08-23T18:02:42.239Z,21.30
2018-08-23T18:05:11.640Z,21.35
2018-08-23T18:07:41.100Z,21.19
2018-08-23T18:10:10.521Z,21.07
2018-08-23T18:12:39.932Z,20.82
2018-08-23T18:15:10.080Z,20.63
2018-08-23T18:17:40.512Z,20.38
2018-08-23T18:20:10.220Z,20.27
2018-08-23T18:22:39.684Z,20.24
2018-08-23T18:25:09.481Z,20.25
2018-08-23T18:27:40.071Z,20.33
2018-08-23T18:30:09.581Z,20.35
2018-08-23T18:32:39.118Z,20.51
2018-08-23T18:35:08.445Z,20.44
2018-08-23T18:37:38.048Z,20.30
2018-08-23T18:40:07.358Z,20.44
2018-08-23T18:42:36.786Z,20.59
2018-08-23T18:45:06.256Z,20.49
2018-08-23T18:47:35.702Z,20.45
2018-08-23T18:50:05.903Z,20.44
2018-08-23T18:52:35.424Z,20.42
2018-08-23T18:55:05.208Z,20.43
2018-08-23T18:57:35.377Z,20.50
2018-08-23T19:00:06.320Z,20.32
2018-08-23T19:02:36.716Z,20.51
2018-08-23T19:05:06.212Z,20.54
2018-08-23T19:07:40.620Z,20.30
2018-08-23T19:10:11.305Z,20.27
2018-08-23T19:12:40.945Z,20.26
2018-08-23T19:15:11.245Z,20.28
2018-08-23T19:17:41.719Z,20.34
2018-08-23T19:20:12.459Z,20.34
2018-08-23T19:22:41.884Z,20.24
2018-08-23T19:25:11.617Z,19.96
2018-08-23T19:27:40.891Z,20.11
2018-08-23T19:30:10.790Z,20.04
2018-08-23T19:32:40.121Z,19.94
2018-08-23T19:35:09.581Z,19.97
2018-08-23T19:37:39.001Z,20.05
2018-08-23T19:40:08.957Z,19.99
2018-08-23T19:42:38.320Z,19.99
2018-08-23T19:45:07.803Z,20.02
2018-08-23T19:47:48.781Z,19.91
2018-08-23T19:50:19.172Z,19.74
2018-08-23T19:52:49.249Z,19.52
2018-08-23T19:55:19.175Z,19.37
2018-08-23T19:57:50.433Z,19.26
2018-08-23T20:00:20.885Z,19.21
2018-08-23T20:02:50.288Z,19.20
2018-08-23T20:05:19.644Z,19.13
2018-08-23T20:07:49.073Z,19.14
2018-08-23T20:10:18.758Z,19.30
2018-08-23T20:12:48.447Z,19.29
2018-08-23T20:15:27.600Z,19.39
2018-08-23T20:17:57.646Z,19.29
2018-08-23T20:20:28.061Z,19.37
2018-08-23T20:22:58.174Z,19.27
2018-08-23T20:25:28.174Z,19.26
2018-08-23T20:27:58.611Z,19.19
2018-08-23T20:30:28.460Z,19.18
2018-08-23T20:32:58.436Z,19.11
2018-08-23T20:35:28.552Z,19.03
2018-08-23T20:37:59.939Z,18.93
2018-08-23T20:40:29.792Z,18.79
2018-08-23T20:43:00.302Z,18.90
2018-08-23T20:45:30.039Z,18.86
2018-08-23T20:47:59.953Z,18.86
2018-08-23T20:50:30.599Z,19.01
2018-08-23T20:53:00.779Z,18.98
2018-08-23T20:55:30.306Z,19.00
2018-08-23T20:57:59.774Z,18.80
2018-08-23T21:00:29.459Z,18.60
2018-08-23T21:02:59.289Z,18.42
2018-08-23T21:05:28.643Z,18.51
2018-08-23T21:07:57.977Z,18.40
2018-08-23T21:10:27.301Z,18.30
2018-08-23T21:12:56.742Z,18.47
2018-08-23T21:15:26.108Z,18.55
2018-08-23T21:17:55.474Z,18.34
2018-08-23T21:20:24.827Z,18.31
2018-08-23T21:22:54.137Z,18.64
2018-08-23T21:25:23.454Z,18.56
2018-08-23T21:27:52.855Z,18.72
2018-08-23T21:30:22.236Z,18.68
2018-08-23T21:32:51.574Z,18.62
2018-08-23T21:35:20.931Z,18.58
2018-08-23T21:37:50.338Z,18.72
2018-08-23T21:40:19.765Z,18.69
2018-08-23T21:42:49.179Z,18.78
2018-08-23T21:45:18.669Z,18.45
2018-08-23T21:47:48.082Z,18.78
2018-08-23T21:50:17.508Z,18.77
2018-08-23T21:52:46.923Z,18.64
2018-08-23T21:55:16.303Z,18.44
2018-08-23T21:57:45.696Z,18.38
2018-08-23T22:00:15.121Z,18.54
2018-08-23T22:02:44.518Z,18.29
2018-08-23T22:05:13.907Z,18.11
2018-08-23T22:07:43.256Z,17.99
2018-08-23T22:10:12.655Z,17.97
2018-08-23T22:12:42.059Z,17.90
2018-08-23T22:15:12.768Z,17.87
2018-08-23T22:17:42.076Z,17.81
2018-08-23T22:20:11.639Z,17.72
2018-08-23T22:22:41.092Z,17.90
2018-08-23T22:25:10.610Z,17.95
2018-08-23T22:27:40.052Z,17.55
2018-08-23T22:30:09.415Z,17.32
2018-08-23T22:32:38.785Z,17.13
2018-08-23T22:35:08.163Z,17.31
2018-08-23T22:37:37.886Z,17.06
2018-08-23T22:40:07.467Z,17.16
2018-08-23T22:42:36.951Z,17.48
2018-08-23T22:45:06.389Z,17.13
2018-08-23T22:47:35.753Z,17.01
2018-08-23T22:50:05.455Z,16.85
2018-08-23T22:52:34.837Z,16.67
2018-08-23T22:55:04.171Z,16.55
2018-08-23T22:57:33.484Z,16.48
2018-08-23T23:00:02.941Z,16.38
2018-08-23T23:02:38.763Z,16.36
2018-08-23T23:05:09.208Z,16.45
2018-08-23T23:07:38.614Z,16.64
2018-08-23T23:10:08.603Z,16.60
2018-08-23T23:12:38.033Z,16.53
2018-08-23T23:15:11.503Z,16.33
2018-08-23T23:17:40.868Z,16.50
2018-08-23T23:20:10.239Z,16.61
2018-08-23T23:22:39.632Z,16.38
2018-08-23T23:25:09.007Z,16.30
2018-08-23T23:27:38.366Z,16.25
2018-08-23T23:30:08.068Z,16.30
2018-08-23T23:32:37.406Z,16.22
2018-08-23T23:35:06.772Z,16.22
2018-08-23T23:37:36.185Z,16.26
2018-08-23T23:40:05.576Z,16.28
2018-08-23T23:42:34.926Z,16.26
2018-08-23T23:45:04.590Z,16.36
2018-08-23T23:47:33.937Z,16.64
2018-08-23T23:50:03.461Z,17.09
2018-08-23T23:52:32.805Z,17.19
2018-08-23T23:55:02.187Z,17.40
2018-08-23T23:57:31.519Z,17.39
